KRHI/RHI METAR and TAF weather

Enter ICAO airport designator
Station Type Date Time Source
KRHI METAR 2021/01/17 18:53 UTC NOAA

KRHI 171853Z AUTO 32004KT 10SM OVC014 M05/M08 A2967 RMK AO2 SLP072 T10501083


Station Type Date Time Source
KRHI Decoded METAR 2021/01/17 18:53 UTC NOAA

RHINELANDER-ONEIDA CO AIRPORT , WI, United States (KRHI) 45-38N 89-29W 485M
Jan 17, 2021 - 01:53 PM EST / 2021.01.17 1853 UTC
Wind: from the NW (320 degrees) at 5 MPH (4 KT):0
Visibility: 10 mile(s):0
Sky conditions: overcast
Temperature: 23.0 F (-5.0 C)
Windchill: 15 F (-9 C):1
Dew Point: 17.1 F (-8.3 C)
Relative Humidity: 77%
Pressure (altimeter): 29.67 in. Hg (1004 hPa)
ob: KRHI 171853Z AUTO 32004KT 10SM OVC014 M05/M08 A2967 RMK AO2 SLP072 T10501083
cycle: 19

Station Type Date Time Source
KRHI TAF 2021/01/17 18:27 UTC NOAA

TAF KRHI 171725Z 1718/1818 33004KT P6SM VCSH OVC018
FM172300 34003KT P6SM OVC020
FM180200 VRB02KT P6SM -SHSN OVC018
FM180800 30002KT P6SM -SHSN OVC012
FM181500 27006KT P6SM BKN018 OVC060

Example: see airport list